sensor_id;sensor_type;location;lat;lon;timestamp;pressure;altitude;pressure_sealevel;temperature;humidity
8286;BME280;4181;43.416;24.598;2023-05-25T00:00:34;99786.75;;;20.06;100.00
8286;BME280;4181;43.416;24.598;2023-05-25T00:03:00;99789.16;;;19.99;100.00
8286;BME280;4181;43.416;24.598;2023-05-25T00:05:27;99790.72;;;19.83;100.00
8286;BME280;4181;43.416;24.598;2023-05-25T00:07:53;99784.72;;;19.81;100.00
8286;BME280;4181;43.416;24.598;2023-05-25T00:10:20;99784.50;;;19.69;100.00
8286;BME280;4181;43.416;24.598;2023-05-25T00:12:45;99787.34;;;19.86;100.00
8286;BME280;4181;43.416;24.598;2023-05-25T00:15:11;99787.16;;;19.82;100.00
8286;BME280;4181;43.416;24.598;2023-05-25T00:17:36;99791.94;;;19.99;100.00
8286;BME280;4181;43.416;24.598;2023-05-25T00:20:03;99790.13;;;20.03;100.00
8286;BME280;4181;43.416;24.598;2023-05-25T00:22:33;99792.91;;;20.03;100.00
8286;BME280;4181;43.416;24.598;2023-05-25T00:24:58;99788.03;;;20.08;100.00
8286;BME280;4181;43.416;24.598;2023-05-25T00:27:24;99786.25;;;20.12;100.00
8286;BME280;4181;43.416;24.598;2023-05-25T00:29:50;99788.09;;;20.26;100.00
8286;BME280;4181;43.416;24.598;2023-05-25T00:32:15;99803.59;;;20.35;100.00
8286;BME280;4181;43.416;24.598;2023-05-25T00:34:41;99811.91;;;20.35;100.00
8286;BME280;4181;43.416;24.598;2023-05-25T00:37:06;99822.03;;;20.31;100.00
8286;BME280;4181;43.416;24.598;2023-05-25T00:39:31;99829.81;;;20.21;100.00
8286;BME280;4181;43.416;24.598;2023-05-25T00:42:01;99846.88;;;19.75;100.00
8286;BME280;4181;43.416;24.598;2023-05-25T00:44:27;99838.38;;;19.71;100.00
8286;BME280;4181;43.416;24.598;2023-05-25T00:46:52;99847.50;;;19.41;100.00
8286;BME280;4181;43.416;24.598;2023-05-25T00:49:20;99832.88;;;19.41;100.00
8286;BME280;4181;43.416;24.598;2023-05-25T00:51:46;99826.75;;;19.08;100.00
8286;BME280;4181;43.416;24.598;2023-05-25T00:54:16;99813.56;;;19.05;100.00
8286;BME280;4181;43.416;24.598;2023-05-25T00:56:50;99813.09;;;18.89;100.00
8286;BME280;4181;43.416;24.598;2023-05-25T00:59:25;99815.38;;;18.87;100.00
8286;BME280;4181;43.416;24.598;2023-05-25T01:01:53;99816.69;;;19.12;100.00
8286;BME280;4181;43.416;24.598;2023-05-25T01:04:19;99819.53;;;19.21;100.00
8286;BME280;4181;43.416;24.598;2023-05-25T01:06:47;99822.47;;;19.24;100.00
8286;BME280;4181;43.416;24.598;2023-05-25T01:09:16;99835.34;;;19.07;100.00
8286;BME280;4181;43.416;24.598;2023-05-25T01:11:48;99810.16;;;18.86;100.00
8286;BME280;4181;43.416;24.598;2023-05-25T01:14:17;99804.44;;;19.05;100.00
8286;BME280;4181;43.416;24.598;2023-05-25T01:16:46;99809.53;;;18.89;100.00
8286;BME280;4181;43.416;24.598;2023-05-25T01:19:15;99801.31;;;18.98;100.00
8286;BME280;4181;43.416;24.598;2023-05-25T01:21:43;99798.94;;;18.82;100.00
8286;BME280;4181;43.416;24.598;2023-05-25T01:24:21;99787.78;;;18.74;100.00
8286;BME280;4181;43.416;24.598;2023-05-25T01:27:14;99791.34;;;18.52;100.00
8286;BME280;4181;43.416;24.598;2023-05-25T01:29:43;99777.25;;;18.27;100.00
8286;BME280;4181;43.416;24.598;2023-05-25T01:32:10;99756.19;;;18.31;100.00
8286;BME280;4181;43.416;24.598;2023-05-25T01:34:40;99760.88;;;18.44;100.00
8286;BME280;4181;43.416;24.598;2023-05-25T01:37:07;99761.63;;;18.58;100.00
8286;BME280;4181;43.416;24.598;2023-05-25T01:39:33;99774.28;;;18.50;100.00
8286;BME280;4181;43.416;24.598;2023-05-25T01:41:58;99779.09;;;18.31;100.00
8286;BME280;4181;43.416;24.598;2023-05-25T01:44:24;99786.47;;;18.36;100.00
8286;BME280;4181;43.416;24.598;2023-05-25T01:47:00;99777.25;;;18.40;100.00
8286;BME280;4181;43.416;24.598;2023-05-25T01:49:39;99776.59;;;18.57;100.00
8286;BME280;4181;43.416;24.598;2023-05-25T01:52:22;99785.72;;;18.57;100.00
8286;BME280;4181;43.416;24.598;2023-05-25T01:55:07;99781.84;;;18.45;100.00
8286;BME280;4181;43.416;24.598;2023-05-25T01:57:37;99779.78;;;18.37;100.00
8286;BME280;4181;43.416;24.598;2023-05-25T02:00:07;99780.91;;;18.49;100.00
8286;BME280;4181;43.416;24.598;2023-05-25T02:02:34;99777.97;;;18.46;100.00
8286;BME280;4181;43.416;24.598;2023-05-25T02:05:00;99775.13;;;18.59;100.00
8286;BME280;4181;43.416;24.598;2023-05-25T02:07:26;99786.34;;;18.76;100.00
8286;BME280;4181;43.416;24.598;2023-05-25T02:09:52;99784.97;;;18.87;100.00
8286;BME280;4181;43.416;24.598;2023-05-25T02:12:18;99804.69;;;18.94;100.00
8286;BME280;4181;43.416;24.598;2023-05-25T02:14:46;99816.13;;;19.02;100.00
8286;BME280;4181;43.416;24.598;2023-05-25T02:17:13;99822.94;;;18.96;100.00
8286;BME280;4181;43.416;24.598;2023-05-25T02:19:48;99838.53;;;18.78;100.00
8286;BME280;4181;43.416;24.598;2023-05-25T02:22:17;99829.97;;;18.66;100.00
8286;BME280;4181;43.416;24.598;2023-05-25T02:24:42;99841.38;;;18.37;100.00
8286;BME280;4181;43.416;24.598;2023-05-25T02:27:08;99837.81;;;18.50;100.00
8286;BME280;4181;43.416;24.598;2023-05-25T02:29:37;99832.91;;;18.47;100.00
8286;BME280;4181;43.416;24.598;2023-05-25T02:32:05;99837.59;;;18.47;100.00
8286;BME280;4181;43.416;24.598;2023-05-25T02:34:30;99831.44;;;18.36;100.00
8286;BME280;4181;43.416;24.598;2023-05-25T02:36:56;99824.94;;;18.32;100.00
8286;BME280;4181;43.416;24.598;2023-05-25T02:39:21;99815.53;;;18.06;100.00
8286;BME280;4181;43.416;24.598;2023-05-25T02:41:47;99803.75;;;18.14;100.00
8286;BME280;4181;43.416;24.598;2023-05-25T02:44:12;99802.00;;;18.32;100.00
8286;BME280;4181;43.416;24.598;2023-05-25T02:46:37;99801.38;;;18.35;100.00
8286;BME280;4181;43.416;24.598;2023-05-25T02:49:06;99802.84;;;18.46;100.00
8286;BME280;4181;43.416;24.598;2023-05-25T02:51:31;99803.41;;;18.56;100.00
8286;BME280;4181;43.416;24.598;2023-05-25T02:53:57;99801.66;;;18.60;100.00
8286;BME280;4181;43.416;24.598;2023-05-25T02:56:26;99818.19;;;18.74;100.00
8286;BME280;4181;43.416;24.598;2023-05-25T02:58:52;99831.06;;;18.78;100.00
8286;BME280;4181;43.416;24.598;2023-05-25T03:01:17;99838.94;;;18.85;100.00
8286;BME280;4181;43.416;24.598;2023-05-25T03:03:46;99843.72;;;18.93;100.00
8286;BME280;4181;43.416;24.598;2023-05-25T03:06:17;99848.97;;;18.81;100.00
8286;BME280;4181;43.416;24.598;2023-05-25T03:08:43;99849.47;;;18.83;100.00
8286;BME280;4181;43.416;24.598;2023-05-25T03:11:11;99846.56;;;18.66;100.00
8286;BME280;4181;43.416;24.598;2023-05-25T03:13:37;99853.69;;;18.80;100.00
8286;BME280;4181;43.416;24.598;2023-05-25T03:16:02;99845.31;;;18.72;100.00
8286;BME280;4181;43.416;24.598;2023-05-25T03:18:28;99846.44;;;18.71;100.00
8286;BME280;4181;43.416;24.598;2023-05-25T03:20:53;99838.09;;;18.84;100.00
8286;BME280;4181;43.416;24.598;2023-05-25T03:23:19;99845.56;;;18.98;100.00
8286;BME280;4181;43.416;24.598;2023-05-25T03:25:45;99851.44;;;19.05;100.00
8286;BME280;4181;43.416;24.598;2023-05-25T03:28:10;99861.25;;;19.11;100.00
8286;BME280;4181;43.416;24.598;2023-05-25T03:30:36;99848.75;;;19.13;100.00
8286;BME280;4181;43.416;24.598;2023-05-25T03:33:01;99858.13;;;19.26;100.00
8286;BME280;4181;43.416;24.598;2023-05-25T03:35:26;99856.75;;;19.37;100.00
8286;BME280;4181;43.416;24.598;2023-05-25T03:37:52;99857.50;;;19.51;100.00
8286;BME280;4181;43.416;24.598;2023-05-25T03:40:17;99857.56;;;19.59;100.00
8286;BME280;4181;43.416;24.598;2023-05-25T03:42:43;99871.59;;;19.41;100.00
8286;BME280;4181;43.416;24.598;2023-05-25T03:45:08;99876.31;;;19.05;100.00
8286;BME280;4181;43.416;24.598;2023-05-25T03:47:37;99868.03;;;19.27;100.00
8286;BME280;4181;43.416;24.598;2023-05-25T03:50:10;99874.69;;;19.39;100.00
8286;BME280;4181;43.416;24.598;2023-05-25T03:52:36;99882.41;;;19.51;100.00
8286;BME280;4181;43.416;24.598;2023-05-25T03:55:01;99888.97;;;19.63;100.00
8286;BME280;4181;43.416;24.598;2023-05-25T03:57:28;99885.31;;;19.76;100.00
8286;BME280;4181;43.416;24.598;2023-05-25T03:59:57;99889.88;;;19.72;100.00
8286;BME280;4181;43.416;24.598;2023-05-25T04:02:22;99885.81;;;19.78;100.00
8286;BME280;4181;43.416;24.598;2023-05-25T04:04:48;99893.53;;;19.59;100.00
8286;BME280;4181;43.416;24.598;2023-05-25T04:07:19;99897.75;;;19.35;100.00
8286;BME280;4181;43.416;24.598;2023-05-25T04:09:45;99886.41;;;19.45;100.00
8286;BME280;4181;43.416;24.598;2023-05-25T04:12:10;99883.00;;;19.48;100.00
8286;BME280;4181;43.416;24.598;2023-05-25T04:14:36;99878.94;;;19.67;100.00
8286;BME280;4181;43.416;24.598;2023-05-25T04:17:01;99881.94;;;19.88;100.00
8286;BME280;4181;43.416;24.598;2023-05-25T04:19:29;99882.63;;;19.93;100.00
8286;BME280;4181;43.416;24.598;2023-05-25T04:21:54;99872.66;;;19.84;100.00
8286;BME280;4181;43.416;24.598;2023-05-25T04:24:20;99870.66;;;19.76;100.00
8286;BME280;4181;43.416;24.598;2023-05-25T04:26:46;99876.53;;;19.83;100.00
8286;BME280;4181;43.416;24.598;2023-05-25T04:29:12;99870.75;;;20.01;100.00
8286;BME280;4181;43.416;24.598;2023-05-25T04:31:38;99879.63;;;20.12;100.00
8286;BME280;4181;43.416;24.598;2023-05-25T04:34:10;99875.38;;;20.06;100.00
8286;BME280;4181;43.416;24.598;2023-05-25T04:36:35;99878.47;;;20.13;100.00
8286;BME280;4181;43.416;24.598;2023-05-25T04:39:03;99879.63;;;20.12;100.00
8286;BME280;4181;43.416;24.598;2023-05-25T04:41:31;99875.22;;;20.11;100.00
8286;BME280;4181;43.416;24.598;2023-05-25T04:43:58;99883.97;;;19.96;100.00
8286;BME280;4181;43.416;24.598;2023-05-25T04:46:23;99869.69;;;20.11;100.00
8286;BME280;4181;43.416;24.598;2023-05-25T04:48:49;99868.09;;;20.19;100.00
8286;BME280;4181;43.416;24.598;2023-05-25T04:51:15;99867.16;;;20.32;100.00
8286;BME280;4181;43.416;24.598;2023-05-25T04:53:43;99870.75;;;20.32;100.00
8286;BME280;4181;43.416;24.598;2023-05-25T04:56:08;99878.59;;;20.39;100.00
8286;BME280;4181;43.416;24.598;2023-05-25T04:58:34;99874.97;;;20.30;100.00
8286;BME280;4181;43.416;24.598;2023-05-25T05:01:00;99874.34;;;20.33;100.00
8286;BME280;4181;43.416;24.598;2023-05-25T05:03:25;99881.84;;;20.32;100.00
8286;BME280;4181;43.416;24.598;2023-05-25T05:05:51;99878.59;;;20.39;100.00
8286;BME280;4181;43.416;24.598;2023-05-25T05:08:16;99887.25;;;20.46;100.00
8286;BME280;4181;43.416;24.598;2023-05-25T05:10:42;99888.06;;;20.55;100.00
8286;BME280;4181;43.416;24.598;2023-05-25T05:13:07;99891.34;;;20.57;100.00
8286;BME280;4181;43.416;24.598;2023-05-25T05:15:35;99897.38;;;20.50;100.00
8286;BME280;4181;43.416;24.598;2023-05-25T05:18:00;99891.00;;;20.50;100.00
8286;BME280;4181;43.416;24.598;2023-05-25T05:20:26;99893.59;;;20.38;100.00
8286;BME280;4181;43.416;24.598;2023-05-25T05:22:52;99900.94;;;20.42;100.00
8286;BME280;4181;43.416;24.598;2023-05-25T05:25:18;99895.09;;;20.52;100.00
8286;BME280;4181;43.416;24.598;2023-05-25T05:27:43;99890.19;;;20.49;100.00
8286;BME280;4181;43.416;24.598;2023-05-25T05:30:09;99887.28;;;20.54;100.00
8286;BME280;4181;43.416;24.598;2023-05-25T05:32:35;99888.78;;;20.69;100.00
8286;BME280;4181;43.416;24.598;2023-05-25T05:35:00;99899.53;;;20.70;100.00
8286;BME280;4181;43.416;24.598;2023-05-25T05:37:26;99901.31;;;20.66;100.00
8286;BME280;4181;43.416;24.598;2023-05-25T05:39:51;99912.09;;;20.76;100.00
8286;BME280;4181;43.416;24.598;2023-05-25T05:42:17;99910.78;;;20.74;100.00
8286;BME280;4181;43.416;24.598;2023-05-25T05:44:43;99904.41;;;20.65;100.00
8286;BME280;4181;43.416;24.598;2023-05-25T05:47:08;99906.06;;;20.66;100.00
8286;BME280;4181;43.416;24.598;2023-05-25T05:49:34;99902.00;;;20.80;100.00
8286;BME280;4181;43.416;24.598;2023-05-25T05:51:59;99906.25;;;20.95;100.00
8286;BME280;4181;43.416;24.598;2023-05-25T05:54:25;99912.16;;;21.02;100.00
8286;BME280;4181;43.416;24.598;2023-05-25T05:56:53;99910.03;;;20.99;100.00
8286;BME280;4181;43.416;24.598;2023-05-25T05:59:20;99913.16;;;21.14;100.00
8286;BME280;4181;43.416;24.598;2023-05-25T06:01:45;99919.34;;;21.28;100.00
8286;BME280;4181;43.416;24.598;2023-05-25T06:04:11;99915.13;;;21.40;100.00
8286;BME280;4181;43.416;24.598;2023-05-25T06:06:36;99906.91;;;21.52;100.00
8286;BME280;4181;43.416;24.598;2023-05-25T06:09:03;99898.28;;;21.45;100.00
8286;BME280;4181;43.416;24.598;2023-05-25T06:11:32;99888.81;;;21.37;100.00
8286;BME280;4181;43.416;24.598;2023-05-25T06:13:59;99900.41;;;21.48;100.00
8286;BME280;4181;43.416;24.598;2023-05-25T06:16:25;99891.41;;;21.59;100.00
8286;BME280;4181;43.416;24.598;2023-05-25T06:18:53;99890.72;;;21.71;100.00
8286;BME280;4181;43.416;24.598;2023-05-25T06:21:19;99890.91;;;21.49;100.00
8286;BME280;4181;43.416;24.598;2023-05-25T06:23:44;99903.31;;;21.60;100.00
8286;BME280;4181;43.416;24.598;2023-05-25T06:26:11;99909.34;;;21.53;100.00
8286;BME280;4181;43.416;24.598;2023-05-25T06:28:37;99920.31;;;21.50;100.00
8286;BME280;4181;43.416;24.598;2023-05-25T06:31:02;99932.72;;;21.61;100.00
8286;BME280;4181;43.416;24.598;2023-05-25T06:33:28;99946.41;;;21.74;100.00
8286;BME280;4181;43.416;24.598;2023-05-25T06:35:53;99936.78;;;21.80;100.00
8286;BME280;4181;43.416;24.598;2023-05-25T06:38:22;99939.53;;;21.72;100.00
8286;BME280;4181;43.416;24.598;2023-05-25T06:40:48;99952.31;;;21.73;100.00
8286;BME280;4181;43.416;24.598;2023-05-25T06:43:13;99966.06;;;21.78;100.00
8286;BME280;4181;43.416;24.598;2023-05-25T06:45:39;99962.09;;;21.96;100.00
8286;BME280;4181;43.416;24.598;2023-05-25T06:48:04;99968.78;;;21.95;100.00
8286;BME280;4181;43.416;24.598;2023-05-25T06:50:29;99978.44;;;21.89;100.00
8286;BME280;4181;43.416;24.598;2023-05-25T06:52:55;99985.22;;;22.17;100.00
8286;BME280;4181;43.416;24.598;2023-05-25T06:55:20;99970.06;;;22.52;100.00
8286;BME280;4181;43.416;24.598;2023-05-25T06:57:46;99988.28;;;22.79;100.00
8286;BME280;4181;43.416;24.598;2023-05-25T07:00:12;99990.91;;;22.75;100.00
8286;BME280;4181;43.416;24.598;2023-05-25T07:02:38;99998.03;;;22.93;100.00
8286;BME280;4181;43.416;24.598;2023-05-25T07:05:04;99988.97;;;23.05;100.00
8286;BME280;4181;43.416;24.598;2023-05-25T07:07:30;100002.94;;;22.96;100.00
8286;BME280;4181;43.416;24.598;2023-05-25T07:09:55;100000.63;;;22.98;100.00
8286;BME280;4181;43.416;24.598;2023-05-25T07:12:21;99992.44;;;23.22;100.00
8286;BME280;4181;43.416;24.598;2023-05-25T07:14:49;100006.44;;;23.05;100.00
8286;BME280;4181;43.416;24.598;2023-05-25T07:17:15;100006.25;;;23.10;100.00
8286;BME280;4181;43.416;24.598;2023-05-25T07:19:40;99984.19;;;23.55;100.00
8286;BME280;4181;43.416;24.598;2023-05-25T07:22:08;99990.50;;;23.64;100.00
8286;BME280;4181;43.416;24.598;2023-05-25T07:24:34;99992.13;;;23.98;100.00
8286;BME280;4181;43.416;24.598;2023-05-25T07:27:00;99985.88;;;24.33;100.00
8286;BME280;4181;43.416;24.598;2023-05-25T07:29:26;99994.38;;;24.49;100.00
8286;BME280;4181;43.416;24.598;2023-05-25T07:31:52;100000.38;;;24.71;100.00
8286;BME280;4181;43.416;24.598;2023-05-25T07:34:17;100009.88;;;24.82;100.00
8286;BME280;4181;43.416;24.598;2023-05-25T07:36:43;100019.41;;;24.69;100.00
8286;BME280;4181;43.416;24.598;2023-05-25T07:39:08;100021.59;;;24.64;100.00
8286;BME280;4181;43.416;24.598;2023-05-25T07:41:35;100016.63;;;24.69;100.00
8286;BME280;4181;43.416;24.598;2023-05-25T07:44:00;100016.88;;;24.76;100.00
8286;BME280;4181;43.416;24.598;2023-05-25T07:46:26;100020.69;;;24.72;100.00
8286;BME280;4181;43.416;24.598;2023-05-25T07:48:51;100022.34;;;24.73;100.00
8286;BME280;4181;43.416;24.598;2023-05-25T07:51:19;100021.16;;;24.86;100.00
8286;BME280;4181;43.416;24.598;2023-05-25T07:53:45;100028.28;;;24.83;100.00
8286;BME280;4181;43.416;24.598;2023-05-25T07:56:10;100021.41;;;24.93;100.00
8286;BME280;4181;43.416;24.598;2023-05-25T07:58:36;100005.56;;;25.45;100.00
8286;BME280;4181;43.416;24.598;2023-05-25T08:01:01;100005.19;;;25.86;100.00
8286;BME280;4181;43.416;24.598;2023-05-25T08:03:27;100008.22;;;26.37;100.00
8286;BME280;4181;43.416;24.598;2023-05-25T08:05:52;100012.84;;;26.76;100.00
8286;BME280;4181;43.416;24.598;2023-05-25T08:08:18;100009.56;;;27.05;100.00
8286;BME280;4181;43.416;24.598;2023-05-25T08:10:43;100015.22;;;27.24;100.00
8286;BME280;4181;43.416;24.598;2023-05-25T08:13:09;100011.09;;;27.53;100.00
8286;BME280;4181;43.416;24.598;2023-05-25T08:15:35;100023.13;;;27.53;100.00
8286;BME280;4181;43.416;24.598;2023-05-25T08:18:00;100016.69;;;27.87;100.00
8286;BME280;4181;43.416;24.598;2023-05-25T08:20:31;100011.22;;;28.13;100.00
8286;BME280;4181;43.416;24.598;2023-05-25T08:22:56;100017.66;;;28.36;100.00
8286;BME280;4181;43.416;24.598;2023-05-25T08:25:23;100013.25;;;28.35;100.00
8286;BME280;4181;43.416;24.598;2023-05-25T08:27:49;100031.59;;;27.91;100.00
8286;BME280;4181;43.416;24.598;2023-05-25T08:30:14;100028.31;;;27.89;100.00
8286;BME280;4181;43.416;24.598;2023-05-25T08:32:40;100015.63;;;28.14;100.00
8286;BME280;4181;43.416;24.598;2023-05-25T08:35:08;100011.75;;;28.41;100.00
8286;BME280;4181;43.416;24.598;2023-05-25T08:37:34;100008.31;;;28.71;100.00
8286;BME280;4181;43.416;24.598;2023-05-25T08:39:59;100014.13;;;28.85;100.00
8286;BME280;4181;43.416;24.598;2023-05-25T08:42:27;100010.06;;;29.05;100.00
8286;BME280;4181;43.416;24.598;2023-05-25T08:44:53;100016.88;;;29.04;100.00
8286;BME280;4181;43.416;24.598;2023-05-25T08:47:21;100010.19;;;29.12;100.00
8286;BME280;4181;43.416;24.598;2023-05-25T08:49:48;100022.22;;;28.64;100.00
8286;BME280;4181;43.416;24.598;2023-05-25T08:52:20;100025.22;;;28.74;100.00
8286;BME280;4181;43.416;24.598;2023-05-25T08:54:50;100023.06;;;28.68;100.00
8286;BME280;4181;43.416;24.598;2023-05-25T08:57:19;100020.75;;;28.73;100.00
8286;BME280;4181;43.416;24.598;2023-05-25T08:59:51;100015.56;;;28.98;100.00
8286;BME280;4181;43.416;24.598;2023-05-25T09:05:20;100014.75;;;29.49;100.00
8286;BME280;4181;43.416;24.598;2023-05-25T09:07:47;100017.88;;;29.67;100.00
8286;BME280;4181;43.416;24.598;2023-05-25T09:10:14;100012.25;;;29.67;100.00
8286;BME280;4181;43.416;24.598;2023-05-25T09:12:41;100023.94;;;29.17;100.00
8286;BME280;4181;43.416;24.598;2023-05-25T09:15:10;100014.34;;;29.47;100.00
8286;BME280;4181;43.416;24.598;2023-05-25T09:17:36;100020.44;;;29.01;100.00
8286;BME280;4181;43.416;24.598;2023-05-25T09:20:02;100021.06;;;29.13;100.00
8286;BME280;4181;43.416;24.598;2023-05-25T09:22:28;100013.97;;;29.23;100.00
8286;BME280;4181;43.416;24.598;2023-05-25T09:24:53;100019.97;;;29.47;100.00
8286;BME280;4181;43.416;24.598;2023-05-25T09:27:22;100013.91;;;29.45;100.00
8286;BME280;4181;43.416;24.598;2023-05-25T09:29:51;100009.13;;;29.49;100.00
8286;BME280;4181;43.416;24.598;2023-05-25T09:32:17;100008.69;;;29.44;100.00
8286;BME280;4181;43.416;24.598;2023-05-25T09:34:44;100002.06;;;29.59;100.00
8286;BME280;4181;43.416;24.598;2023-05-25T09:37:19;100006.16;;;29.65;100.00
8286;BME280;4181;43.416;24.598;2023-05-25T09:39:45;100016.59;;;29.09;100.00
8286;BME280;4181;43.416;24.598;2023-05-25T09:42:15;100014.22;;;29.11;100.00
8286;BME280;4181;43.416;24.598;2023-05-25T09:44:41;100009.59;;;29.25;100.00
8286;BME280;4181;43.416;24.598;2023-05-25T09:47:09;100016.78;;;29.23;100.00
8286;BME280;4181;43.416;24.598;2023-05-25T09:49:35;100014.53;;;29.32;100.00
8286;BME280;4181;43.416;24.598;2023-05-25T09:52:01;100014.97;;;28.85;100.00
8286;BME280;4181;43.416;24.598;2023-05-25T09:54:26;100013.06;;;28.93;100.00
8286;BME280;4181;43.416;24.598;2023-05-25T09:56:53;99995.81;;;29.17;100.00
8286;BME280;4181;43.416;24.598;2023-05-25T09:59:18;99998.59;;;29.43;100.00
8286;BME280;4181;43.416;24.598;2023-05-25T10:01:50;99996.78;;;29.28;100.00
8286;BME280;4181;43.416;24.598;2023-05-25T10:04:16;100008.94;;;29.09;100.00
8286;BME280;4181;43.416;24.598;2023-05-25T10:06:42;99996.09;;;29.08;100.00
8286;BME280;4181;43.416;24.598;2023-05-25T10:09:10;100002.06;;;29.07;100.00
8286;BME280;4181;43.416;24.598;2023-05-25T10:11:39;99993.19;;;29.27;100.00
8286;BME280;4181;43.416;24.598;2023-05-25T10:14:08;99996.00;;;29.27;100.00
8286;BME280;4181;43.416;24.598;2023-05-25T10:16:35;99992.09;;;29.35;100.00
8286;BME280;4181;43.416;24.598;2023-05-25T10:19:06;99975.34;;;29.72;100.00
8286;BME280;4181;43.416;24.598;2023-05-25T10:21:35;99970.56;;;30.09;100.00
8286;BME280;4181;43.416;24.598;2023-05-25T10:24:16;99966.78;;;30.31;100.00
8286;BME280;4181;43.416;24.598;2023-05-25T10:26:49;99955.00;;;30.22;100.00
8286;BME280;4181;43.416;24.598;2023-05-25T10:29:19;99963.94;;;29.95;100.00
8286;BME280;4181;43.416;24.598;2023-05-25T10:31:48;99955.88;;;29.93;100.00
8286;BME280;4181;43.416;24.598;2023-05-25T10:34:14;99946.78;;;30.07;100.00
8286;BME280;4181;43.416;24.598;2023-05-25T10:36:41;99945.38;;;30.23;100.00
8286;BME280;4181;43.416;24.598;2023-05-25T10:39:07;99940.44;;;30.53;100.00
8286;BME280;4181;43.416;24.598;2023-05-25T10:41:33;99936.53;;;30.68;100.00
8286;BME280;4181;43.416;24.598;2023-05-25T10:43:59;99930.97;;;30.75;100.00
8286;BME280;4181;43.416;24.598;2023-05-25T10:46:25;99930.31;;;30.89;100.00
8286;BME280;4181;43.416;24.598;2023-05-25T10:48:51;99924.31;;;30.98;100.00
8286;BME280;4181;43.416;24.598;2023-05-25T10:51:20;99927.09;;;30.90;100.00
8286;BME280;4181;43.416;24.598;2023-05-25T10:53:47;99922.25;;;30.87;100.00
8286;BME280;4181;43.416;24.598;2023-05-25T10:56:22;99916.69;;;31.02;100.00
8286;BME280;4181;43.416;24.598;2023-05-25T10:58:48;99911.13;;;31.16;100.00
8286;BME280;4181;43.416;24.598;2023-05-25T11:01:14;99909.50;;;31.15;100.00
8286;BME280;4181;43.416;24.598;2023-05-25T11:06:14;99892.19;;;31.13;100.00
8286;BME280;4181;43.416;24.598;2023-05-25T11:08:56;99885.38;;;31.21;100.00
8286;BME280;4181;43.416;24.598;2023-05-25T11:14:37;99891.38;;;31.09;100.00
8286;BME280;4181;43.416;24.598;2023-05-25T11:24:56;99895.78;;;30.52;100.00
8286;BME280;4181;43.416;24.598;2023-05-25T11:27:50;99888.16;;;30.52;100.00
8286;BME280;4181;43.416;24.598;2023-05-25T11:30:39;99879.53;;;30.82;100.00
8286;BME280;4181;43.416;24.598;2023-05-25T11:33:05;99882.00;;;30.90;100.00
8286;BME280;4181;43.416;24.598;2023-05-25T11:35:32;99868.03;;;31.12;100.00
8286;BME280;4181;43.416;24.598;2023-05-25T11:38:04;99877.78;;;31.32;100.00
8286;BME280;4181;43.416;24.598;2023-05-25T11:40:31;99879.09;;;31.41;100.00
8286;BME280;4181;43.416;24.598;2023-05-25T11:43:09;99885.78;;;31.16;100.00
8286;BME280;4181;43.416;24.598;2023-05-25T11:45:47;99890.97;;;30.52;100.00
8286;BME280;4181;43.416;24.598;2023-05-25T11:48:21;99875.41;;;30.72;100.00
8286;BME280;4181;43.416;24.598;2023-05-25T11:50:46;99871.16;;;30.92;100.00
8286;BME280;4181;43.416;24.598;2023-05-25T11:53:12;99866.31;;;30.93;100.00
8286;BME280;4181;43.416;24.598;2023-05-25T11:55:37;99874.63;;;30.75;100.00
8286;BME280;4181;43.416;24.598;2023-05-25T11:58:11;99867.53;;;30.95;100.00
8286;BME280;4181;43.416;24.598;2023-05-25T12:03:45;99856.41;;;31.24;100.00
8286;BME280;4181;43.416;24.598;2023-05-25T12:08:51;99861.16;;;31.06;100.00
8286;BME280;4181;43.416;24.598;2023-05-25T12:11:18;99861.97;;;31.06;100.00
8286;BME280;4181;43.416;24.598;2023-05-25T12:13:47;99867.38;;;30.74;100.00
8286;BME280;4181;43.416;24.598;2023-05-25T12:16:12;99865.13;;;30.43;100.00
8286;BME280;4181;43.416;24.598;2023-05-25T12:18:38;99858.16;;;30.27;100.00
8286;BME280;4181;43.416;24.598;2023-05-25T12:21:04;99864.44;;;30.13;100.00
8286;BME280;4181;43.416;24.598;2023-05-25T12:23:32;99858.88;;;30.20;100.00
8286;BME280;4181;43.416;24.598;2023-05-25T12:26:12;99858.47;;;30.18;100.00
8286;BME280;4181;43.416;24.598;2023-05-25T12:28:38;99861.94;;;30.05;100.00
8286;BME280;4181;43.416;24.598;2023-05-25T12:31:28;99867.00;;;29.85;100.00
8286;BME280;4181;43.416;24.598;2023-05-25T12:34:07;99874.44;;;29.67;100.00
8286;BME280;4181;43.416;24.598;2023-05-25T12:36:50;99869.72;;;29.12;100.00
8286;BME280;4181;43.416;24.598;2023-05-25T12:41:54;99865.16;;;28.78;100.00
8286;BME280;4181;43.416;24.598;2023-05-25T12:46:56;99874.44;;;28.52;100.00
8286;BME280;4181;43.416;24.598;2023-05-25T12:49:32;99868.97;;;28.63;100.00
8286;BME280;4181;43.416;24.598;2023-05-25T12:52:00;99874.16;;;28.61;100.00
8286;BME280;4181;43.416;24.598;2023-05-25T12:54:42;99873.28;;;28.56;100.00
8286;BME280;4181;43.416;24.598;2023-05-25T12:57:10;99861.34;;;28.63;100.00
8286;BME280;4181;43.416;24.598;2023-05-25T12:59:41;99864.56;;;28.91;100.00
8286;BME280;4181;43.416;24.598;2023-05-25T13:02:07;99859.97;;;29.06;100.00
8286;BME280;4181;43.416;24.598;2023-05-25T13:04:35;99848.44;;;29.11;100.00
8286;BME280;4181;43.416;24.598;2023-05-25T13:07:01;99847.81;;;29.28;100.00
8286;BME280;4181;43.416;24.598;2023-05-25T13:09:26;99847.13;;;29.38;100.00
8286;BME280;4181;43.416;24.598;2023-05-25T13:12:02;99837.28;;;29.54;100.00
8286;BME280;4181;43.416;24.598;2023-05-25T13:14:28;99842.78;;;29.40;100.00
8286;BME280;4181;43.416;24.598;2023-05-25T13:16:55;99844.72;;;29.36;100.00
8286;BME280;4181;43.416;24.598;2023-05-25T13:19:23;99833.38;;;29.26;100.00
8286;BME280;4181;43.416;24.598;2023-05-25T13:21:49;99834.38;;;29.11;100.00
8286;BME280;4181;43.416;24.598;2023-05-25T13:24:17;99836.19;;;29.00;100.00
8286;BME280;4181;43.416;24.598;2023-05-25T13:26:44;99831.78;;;28.99;100.00